createdAt,value
2018-02-02T00:02:18.082Z,94253.09
2018-02-02T00:04:45.679Z,94245.81
2018-02-02T00:07:13.356Z,94241.98
2018-02-02T00:09:40.951Z,94234.80
2018-02-02T00:12:08.525Z,94236.62
2018-02-02T00:14:36.129Z,94244.77
2018-02-02T00:17:03.720Z,94239.08
2018-02-02T00:19:31.263Z,94247.27
2018-02-02T00:21:58.861Z,94241.41
2018-02-02T00:24:26.457Z,94237.52
2018-02-02T00:26:53.984Z,94238.81
2018-02-02T00:29:21.581Z,94239.05
2018-02-02T00:31:49.180Z,94246.28
2018-02-02T00:34:16.772Z,94256.93
2018-02-02T00:36:44.355Z,94244.25
2018-02-02T00:39:11.895Z,94235.80
2018-02-02T00:41:39.492Z,94233.91
2018-02-02T00:44:07.093Z,94245.52
2018-02-02T00:46:34.695Z,94247.39
2018-02-02T00:49:02.222Z,94243.68
2018-02-02T00:54:30.802Z,94255.38
2018-02-02T00:56:58.320Z,94239.97
2018-02-02T00:59:25.913Z,94238.02
2018-02-02T01:01:53.513Z,94245.19
2018-02-02T01:04:21.034Z,94263.91
2018-02-02T01:06:48.680Z,94269.44
2018-02-02T01:09:16.280Z,94271.21
2018-02-02T01:11:43.924Z,94262.34
2018-02-02T01:14:11.520Z,94274.87
2018-02-02T01:16:39.046Z,94270.28
2018-02-02T01:19:06.701Z,94268.77
2018-02-02T01:21:34.377Z,94265.75
2018-02-02T01:24:01.954Z,94259.22
2018-02-02T01:26:29.608Z,94242.73
2018-02-02T01:28:57.212Z,94235.82
2018-02-02T01:31:24.884Z,94220.00
2018-02-02T01:33:52.484Z,94215.84
2018-02-02T01:36:20.132Z,94215.52
2018-02-02T01:38:47.721Z,94220.40
2018-02-02T01:41:15.316Z,94223.87
2018-02-02T01:43:42.928Z,94231.27
2018-02-02T01:46:10.582Z,94226.28
2018-02-02T01:48:38.168Z,94222.77
2018-02-02T01:51:05.815Z,94230.19
2018-02-02T01:53:33.424Z,94243.55
2018-02-02T01:56:00.962Z,94259.20
2018-02-02T01:58:28.618Z,94229.30
2018-02-02T02:00:56.221Z,94233.59
2018-02-02T02:03:23.759Z,94223.42
2018-02-02T02:05:51.396Z,94244.78
2018-02-02T02:08:18.988Z,94265.03
2018-02-02T02:10:46.510Z,94253.64
2018-02-02T02:13:14.151Z,94257.24
2018-02-02T02:15:41.694Z,94251.25
2018-02-02T02:18:09.364Z,94270.33
2018-02-02T02:20:36.952Z,94285.85
2018-02-02T02:23:04.478Z,94216.62
2018-02-02T02:25:32.166Z,94266.09
2018-02-02T02:27:59.697Z,94257.50
2018-02-02T02:30:27.346Z,94265.77
2018-02-02T02:32:54.940Z,94263.75
2018-02-02T02:35:22.528Z,94257.11
2018-02-02T02:37:50.052Z,94251.71
2018-02-02T02:40:17.712Z,94254.91
2018-02-02T02:42:45.368Z,94268.58
2018-02-02T02:45:12.973Z,94260.80
2018-02-02T02:47:40.565Z,94254.92
2018-02-02T02:50:08.215Z,94265.03
2018-02-02T02:52:35.808Z,94279.86
2018-02-02T02:55:03.468Z,94247.39
2018-02-02T02:57:31.061Z,94269.80
2018-02-02T02:59:58.722Z,94277.89
2018-02-02T03:02:26.320Z,94278.59
2018-02-02T03:04:53.977Z,94269.68
2018-02-02T03:07:21.576Z,94255.86
2018-02-02T03:09:49.168Z,94275.10
2018-02-02T03:12:16.834Z,94263.13
2018-02-02T03:14:44.428Z,94269.35
2018-02-02T03:17:12.022Z,94243.86
2018-02-02T03:19:39.559Z,94254.74
2018-02-02T03:22:07.189Z,94263.12
2018-02-02T03:24:34.829Z,94243.91
2018-02-02T03:27:02.433Z,94269.20
2018-02-02T03:29:30.127Z,94223.70
2018-02-02T03:31:57.727Z,94257.58
2018-02-02T03:34:25.396Z,94247.05
2018-02-02T03:36:52.992Z,94256.64
2018-02-02T03:39:20.518Z,94281.09
2018-02-02T03:41:48.176Z,94256.82
2018-02-02T03:44:15.713Z,94251.43
2018-02-02T03:46:43.231Z,94256.30
2018-02-02T03:49:10.825Z,94249.13
2018-02-02T03:51:38.435Z,94259.28
2018-02-02T03:54:06.090Z,94259.28
2018-02-02T03:56:33.676Z,94268.00
2018-02-02T03:59:01.264Z,94258.76
2018-02-02T04:01:28.853Z,94241.80
2018-02-02T04:03:56.616Z,94252.75
2018-02-02T04:06:24.213Z,94242.19
2018-02-02T04:08:51.744Z,94265.15
2018-02-02T04:11:19.340Z,94259.85
2018-02-02T04:13:46.931Z,94265.62
2018-02-02T04:16:14.581Z,94253.15
2018-02-02T04:18:42.102Z,94242.53
2018-02-02T04:21:09.750Z,94232.33
2018-02-02T04:23:37.344Z,94255.02
2018-02-02T04:26:04.867Z,94264.97
2018-02-02T04:28:32.521Z,94263.99
2018-02-02T04:31:00.047Z,94232.16
2018-02-02T04:33:27.652Z,94270.33
2018-02-02T04:35:55.278Z,94252.82
2018-02-02T04:38:22.992Z,94271.44
2018-02-02T04:40:50.514Z,94253.22
2018-02-02T04:43:18.096Z,94220.94
2018-02-02T04:45:45.689Z,94243.39
2018-02-02T04:48:13.215Z,94246.24
2018-02-02T04:50:40.739Z,94249.62
2018-02-02T04:53:08.336Z,94258.27
2018-02-02T04:55:35.923Z,94266.08
2018-02-02T04:58:03.513Z,94296.06
2018-02-02T05:00:31.108Z,94303.74
2018-02-02T05:02:58.758Z,94320.89
2018-02-02T05:05:26.280Z,94308.37
2018-02-02T05:07:53.925Z,94323.98
2018-02-02T05:10:21.512Z,94329.63
2018-02-02T05:12:49.042Z,94296.85
2018-02-02T05:15:16.698Z,94319.85
2018-02-02T05:17:44.365Z,94312.41
2018-02-02T05:20:11.886Z,94278.34
2018-02-02T05:22:39.472Z,94289.70
2018-02-02T05:25:07.160Z,94287.89
2018-02-02T05:27:34.682Z,94287.27
2018-02-02T05:30:02.328Z,94300.17
2018-02-02T05:32:29.983Z,94313.34
2018-02-02T05:34:57.577Z,94304.20
2018-02-02T05:37:25.173Z,94317.16
2018-02-02T05:39:52.820Z,94323.80
2018-02-02T05:42:20.414Z,94305.70
2018-02-02T05:44:48.013Z,94324.91
2018-02-02T05:47:15.619Z,94312.27
2018-02-02T05:49:43.213Z,94311.77
2018-02-02T05:52:10.805Z,94322.84
2018-02-02T05:54:38.343Z,94325.80
2018-02-02T05:57:05.932Z,94343.16
2018-02-02T05:59:33.581Z,94329.44
2018-02-02T06:02:01.207Z,94325.98
2018-02-02T06:04:28.941Z,94312.32
2018-02-02T06:06:56.463Z,94313.05
2018-02-02T06:09:23.990Z,94307.09
2018-02-02T06:11:51.528Z,94320.59
2018-02-02T06:14:19.046Z,94324.73
2018-02-02T06:16:46.631Z,94324.06
2018-02-02T06:19:26.044Z,94315.30
2018-02-02T06:21:53.695Z,94312.86
2018-02-02T06:24:21.223Z,94316.94
2018-02-02T06:26:48.813Z,94326.23
2018-02-02T06:29:16.339Z,94341.42
2018-02-02T06:31:43.865Z,94329.91
2018-02-02T06:34:11.402Z,94338.27
2018-02-02T06:36:38.995Z,94320.36
2018-02-02T06:39:06.526Z,94309.25
2018-02-02T06:41:34.220Z,94316.34
2018-02-02T06:44:01.868Z,94308.62
2018-02-02T06:46:29.393Z,94333.92
2018-02-02T06:48:56.914Z,94321.03
2018-02-02T06:51:24.519Z,94321.08
2018-02-02T06:53:52.176Z,94344.59
2018-02-02T06:56:19.702Z,94326.96
2018-02-02T06:58:47.260Z,94306.94
2018-02-02T07:01:14.858Z,94325.73
2018-02-02T07:03:42.558Z,94322.53
2018-02-02T07:06:10.197Z,94304.08
2018-02-02T07:08:37.727Z,94324.47
2018-02-02T07:11:05.330Z,94319.50
2018-02-02T07:13:32.950Z,94316.75
2018-02-02T07:16:00.565Z,94320.91
2018-02-02T07:18:28.161Z,94302.68
2018-02-02T07:20:55.683Z,94320.08
2018-02-02T07:23:23.267Z,94303.16
2018-02-02T07:25:50.900Z,94310.86
2018-02-02T07:28:18.492Z,94328.03
2018-02-02T07:30:46.097Z,94314.59
2018-02-02T07:33:13.748Z,94319.20
2018-02-02T07:35:41.396Z,94310.09
2018-02-02T07:38:08.995Z,94313.03
2018-02-02T07:40:36.644Z,94316.09
2018-02-02T07:43:04.331Z,94331.05
2018-02-02T07:45:31.924Z,94337.52
2018-02-02T07:47:59.533Z,94331.48
2018-02-02T07:50:27.091Z,94306.03
2018-02-02T07:52:54.672Z,94298.39
2018-02-02T07:55:22.360Z,94282.28
2018-02-02T07:57:50.019Z,94284.30
2018-02-02T08:00:17.681Z,94285.59
2018-02-02T08:02:45.214Z,94294.97
2018-02-02T08:05:12.847Z,94292.40
2018-02-02T08:07:40.362Z,94278.55
2018-02-02T08:10:08.017Z,94280.23
2018-02-02T08:12:35.638Z,94295.52
2018-02-02T08:15:03.237Z,94288.64
2018-02-02T08:17:30.767Z,94297.16
2018-02-02T08:19:58.377Z,94316.66
2018-02-02T08:22:26.004Z,94323.34
2018-02-02T08:24:53.638Z,94325.86
2018-02-02T08:27:21.285Z,94339.77
2018-02-02T08:29:48.835Z,94338.23
2018-02-02T08:32:16.430Z,94355.64
2018-02-02T08:34:44.041Z,94347.67
2018-02-02T08:37:11.664Z,94352.38
2018-02-02T08:39:39.485Z,94345.66
2018-02-02T08:42:07.072Z,94328.35
2018-02-02T08:44:35.882Z,94358.11
2018-02-02T08:47:03.481Z,94343.78
2018-02-02T08:49:31.068Z,94343.15
2018-02-02T08:51:58.652Z,94340.09
2018-02-02T08:54:26.249Z,94344.22
2018-02-02T08:56:53.775Z,94331.31
2018-02-02T08:59:21.369Z,94328.20
2018-02-02T09:01:54.409Z,94351.11
2018-02-02T09:04:22.132Z,94310.33
2018-02-02T09:06:49.720Z,94331.73
2018-02-02T09:09:17.309Z,94335.39
2018-02-02T09:11:44.934Z,94311.77
2018-02-02T09:14:12.592Z,94332.24
2018-02-02T09:16:40.235Z,94325.67
2018-02-02T09:19:08.072Z,94330.05
2018-02-02T09:21:35.731Z,94331.52
2018-02-02T09:24:03.250Z,94331.08
2018-02-02T09:26:30.897Z,94346.04
2018-02-02T09:28:59.837Z,94323.26
2018-02-02T09:31:27.924Z,94308.15
2018-02-02T09:33:55.329Z,94343.02
2018-02-02T09:36:22.994Z,94330.37
2018-02-02T09:38:50.646Z,94331.08
2018-02-02T09:41:18.238Z,94318.14
2018-02-02T09:43:45.880Z,94313.69
2018-02-02T09:46:13.466Z,94298.06
2018-02-02T09:48:41.113Z,94290.54
2018-02-02T09:51:08.700Z,94285.45
2018-02-02T09:53:36.296Z,94285.48
2018-02-02T09:56:03.814Z,94281.44
2018-02-02T09:58:31.338Z,94291.80
2018-02-02T10:00:58.989Z,94297.75
2018-02-02T10:03:26.526Z,94302.71
2018-02-02T10:05:54.176Z,94286.88
2018-02-02T10:08:21.768Z,94284.98
2018-02-02T10:10:49.384Z,94284.98
2018-02-02T10:13:16.981Z,94256.97
2018-02-02T10:15:44.598Z,94243.47
2018-02-02T10:18:12.136Z,94237.81
2018-02-02T10:20:39.741Z,94219.22
2018-02-02T10:23:07.335Z,94226.11
2018-02-02T10:25:34.929Z,94228.09
2018-02-02T10:28:02.517Z,94226.18
2018-02-02T10:30:30.109Z,94228.42
2018-02-02T10:32:57.768Z,94231.25
2018-02-02T10:35:25.360Z,94228.34
2018-02-02T10:37:52.991Z,94225.08
2018-02-02T10:40:20.640Z,94211.25
2018-02-02T10:42:48.162Z,94214.25
2018-02-02T10:45:15.751Z,94219.91
2018-02-02T10:47:43.392Z,94220.22
2018-02-02T10:50:10.996Z,94219.09
2018-02-02T10:52:38.660Z,94213.00
2018-02-02T10:55:06.310Z,94220.98
2018-02-02T10:57:33.902Z,94216.15
2018-02-02T11:00:01.428Z,94207.30
2018-02-02T11:02:34.792Z,94203.77
2018-02-02T11:05:02.464Z,94203.80
2018-02-02T11:07:30.067Z,94206.38
2018-02-02T11:09:57.665Z,94219.69
2018-02-02T11:12:25.190Z,94200.92
2018-02-02T11:14:52.844Z,94199.05
2018-02-02T11:17:20.366Z,94196.67
2018-02-02T11:19:47.887Z,94203.69
2018-02-02T11:22:15.531Z,94199.20
2018-02-02T11:24:43.125Z,94192.38
2018-02-02T11:27:10.662Z,94181.16
2018-02-02T11:29:38.312Z,94177.66
2018-02-02T11:32:05.834Z,94164.27
2018-02-02T11:34:33.480Z,94167.28
2018-02-02T11:37:01.081Z,94170.80
2018-02-02T11:39:28.797Z,94185.17
2018-02-02T11:41:56.393Z,94178.48
2018-02-02T11:44:23.984Z,94159.43
2018-02-02T11:46:51.510Z,94157.28
2018-02-02T11:49:19.156Z,94164.05
2018-02-02T11:51:46.757Z,94167.88
2018-02-02T11:54:14.357Z,94160.45
2018-02-02T11:56:41.882Z,94152.06
2018-02-02T11:59:09.482Z,94169.33
2018-02-02T12:01:37.035Z,94152.48
2018-02-02T12:04:04.629Z,94139.00
2018-02-02T12:06:32.174Z,94125.87
2018-02-02T12:08:59.776Z,94125.27
2018-02-02T12:11:27.367Z,94144.31
2018-02-02T12:13:55.128Z,94143.39
2018-02-02T12:16:22.819Z,94146.23
2018-02-02T13:02:53.117Z,94159.39
2018-02-02T13:05:20.760Z,94176.42
2018-02-02T13:07:48.293Z,94150.94
2018-02-02T13:10:15.888Z,94151.45
2018-02-02T13:12:43.418Z,94143.29
2018-02-02T13:15:10.947Z,94140.31
2018-02-02T13:17:38.541Z,94135.13
2018-02-02T13:20:06.168Z,94132.95
2018-02-02T13:22:33.856Z,94132.95
2018-02-02T13:25:01.392Z,94123.16
2018-02-02T13:27:29.022Z,94123.16
2018-02-02T13:29:56.553Z,94127.41
2018-02-02T13:32:24.083Z,94118.98
2018-02-02T13:34:51.684Z,94117.20
2018-02-02T13:37:19.293Z,94112.20
2018-02-02T13:39:46.876Z,94105.73
2018-02-02T13:42:14.525Z,94111.33
2018-02-02T13:44:42.132Z,94120.05
2018-02-02T13:47:09.659Z,94123.63
2018-02-02T13:49:37.253Z,94118.64
2018-02-02T13:52:04.906Z,94119.05
2018-02-02T13:54:32.492Z,94118.58
2018-02-02T13:57:00.090Z,94116.72
2018-02-02T13:59:27.689Z,94110.59
2018-02-02T14:01:55.267Z,94096.25
2018-02-02T14:04:22.771Z,94098.14
2018-02-02T14:06:50.297Z,94105.62
2018-02-02T14:09:17.889Z,94118.60
2018-02-02T14:11:45.479Z,94110.73
2018-02-02T14:14:13.006Z,94116.89
2018-02-02T14:16:40.596Z,94127.76
2018-02-02T14:19:08.123Z,94145.09
2018-02-02T14:21:35.708Z,94145.89
2018-02-02T14:24:03.320Z,94140.41
2018-02-02T14:26:30.908Z,94130.53
2018-02-02T14:28:58.501Z,94130.37
2018-02-02T14:31:26.122Z,94136.29
2018-02-02T14:33:53.737Z,94138.72
2018-02-02T14:36:21.369Z,94146.71
2018-02-02T14:38:49.025Z,94156.42
2018-02-02T14:41:16.617Z,94134.48
2018-02-02T16:18:42.292Z,94123.52
2018-02-02T16:21:10.002Z,94129.61
2018-02-02T16:23:37.629Z,94118.94
2018-02-02T16:26:05.313Z,94103.62
2018-02-02T16:28:32.862Z,94108.15
2018-02-02T16:31:00.477Z,94102.23
2018-02-02T16:33:28.007Z,94118.11
2018-02-02T16:35:55.583Z,94113.27
2018-02-02T16:38:23.156Z,94104.42
2018-02-02T16:41:04.099Z,94114.77
2018-02-02T16:43:36.061Z,94098.30
2018-02-02T16:46:10.525Z,94102.64
2018-02-02T16:48:38.776Z,94092.80
2018-02-02T16:51:06.621Z,94100.47
2018-02-02T16:53:40.387Z,94112.70
2018-02-02T16:56:08.045Z,94107.12
2018-02-02T16:58:47.516Z,94104.64
2018-02-02T17:01:15.951Z,94106.47
2018-02-02T17:03:44.295Z,94098.23
2018-02-02T17:06:11.901Z,94108.89
2018-02-02T17:08:39.451Z,94105.13
2018-02-02T17:11:07.004Z,94116.16
2018-02-02T17:13:41.582Z,94131.54
2018-02-02T17:16:09.835Z,94137.58
2018-02-02T17:18:37.507Z,94132.31
2018-02-02T17:21:05.116Z,94140.69
2018-02-02T17:23:33.894Z,94132.80
2018-02-02T17:26:01.742Z,94141.38
2018-02-02T17:28:29.341Z,94123.78
2018-02-02T17:30:56.878Z,94146.36
2018-02-02T17:33:24.576Z,94166.88
2018-02-02T17:35:52.220Z,94162.57
2018-02-02T17:38:19.742Z,94152.59
2018-02-02T17:40:47.398Z,94173.38
2018-02-02T17:43:15.004Z,94157.17
2018-02-02T17:45:42.603Z,94164.50
2018-02-02T17:48:10.262Z,94169.53
2018-02-02T17:50:37.789Z,94184.50
2018-02-02T17:53:05.394Z,94191.19
2018-02-02T17:55:33.006Z,94183.67
2018-02-02T17:58:00.530Z,94189.84
2018-02-02T18:00:32.710Z,94212.56
2018-02-02T18:03:01.067Z,94174.52
2018-02-02T18:05:28.615Z,94146.36
2018-02-02T18:07:56.236Z,94100.59
2018-02-02T18:10:24.022Z,94123.08
2018-02-02T18:12:51.642Z,94115.06
2018-02-02T18:15:19.452Z,94136.27
2018-02-02T18:17:47.109Z,94153.23
2018-02-02T18:20:14.931Z,94147.70
2018-02-02T18:22:42.526Z,94146.83
2018-02-02T18:25:10.124Z,94166.86
2018-02-02T18:27:37.655Z,94159.05
2018-02-02T18:30:06.984Z,94153.84
2018-02-02T18:32:34.646Z,94158.97
2018-02-02T18:35:02.302Z,94162.30
2018-02-02T18:37:29.963Z,94173.84
2018-02-02T18:39:57.568Z,94157.28
2018-02-02T18:42:25.165Z,94156.35
2018-02-02T18:44:52.845Z,94163.77
2018-02-02T18:47:20.446Z,94161.67
2018-02-02T18:49:48.110Z,94156.67
2018-02-02T18:52:15.696Z,94174.23
2018-02-02T18:54:43.453Z,94174.55
2018-02-02T18:57:11.085Z,94178.34
2018-02-02T18:59:38.751Z,94164.78
2018-02-02T19:02:06.439Z,94155.80
2018-02-02T19:04:34.040Z,94162.27
2018-02-02T19:07:01.778Z,94131.67
2018-02-02T19:09:29.465Z,94149.39
2018-02-02T19:11:57.077Z,94149.50
2018-02-02T19:14:24.678Z,94108.53
2018-02-02T19:16:52.279Z,94105.56
2018-02-02T19:19:20.007Z,94103.59
2018-02-02T19:21:47.553Z,94099.25
2018-02-02T19:24:15.184Z,94110.42
2018-02-02T19:26:43.558Z,94110.12
2018-02-02T19:29:11.315Z,94128.84
2018-02-02T19:31:38.940Z,94104.86
2018-02-02T19:34:06.659Z,94091.81
2018-02-02T19:36:34.325Z,94109.22
2018-02-02T19:39:02.042Z,94126.03
2018-02-02T19:41:29.694Z,94129.63
2018-02-02T19:43:57.291Z,94134.20
2018-02-02T19:46:25.403Z,94158.70
2018-02-02T19:48:53.055Z,94135.08
2018-02-02T19:51:20.843Z,94140.89
2018-02-02T19:53:49.525Z,94128.73
2018-02-02T19:56:17.200Z,94150.39
2018-02-02T19:58:45.838Z,94122.13
2018-02-02T20:01:14.060Z,94105.38
2018-02-02T20:03:41.915Z,94092.90
2018-02-02T20:06:09.977Z,94152.36
2018-02-02T20:08:38.008Z,94093.14
2018-02-02T20:11:05.832Z,94131.38
2018-02-02T20:13:34.787Z,94129.49
2018-02-02T20:16:02.473Z,94135.03
2018-02-02T20:18:30.125Z,94149.14
2018-02-02T20:20:57.901Z,94146.58
2018-02-02T20:23:25.508Z,94146.52
2018-02-02T20:25:53.102Z,94123.03
2018-02-02T20:28:20.689Z,94118.83
2018-02-02T20:30:48.275Z,94116.40
2018-02-02T20:33:16.026Z,94131.92
2018-02-02T20:35:43.616Z,94097.21
2018-02-02T20:38:11.151Z,94093.91
2018-02-02T20:40:38.761Z,94108.97
2018-02-02T20:43:06.291Z,94086.84
2018-02-02T20:45:33.889Z,94083.52
2018-02-02T20:48:01.563Z,94086.44
2018-02-02T20:50:29.159Z,94076.69
2018-02-02T20:52:56.757Z,94077.10
2018-02-02T20:55:24.387Z,94087.50
2018-02-02T20:57:51.984Z,94103.81
2018-02-02T21:00:19.584Z,94098.84
2018-02-02T21:02:47.225Z,94072.00
2018-02-02T21:05:14.882Z,94080.34
2018-02-02T21:07:42.479Z,94088.59
2018-02-02T21:10:10.080Z,94084.84
2018-02-02T21:12:37.732Z,94081.88
2018-02-02T21:15:05.262Z,94075.60
2018-02-02T21:17:32.856Z,94089.70
2018-02-02T21:20:00.457Z,94089.84
2018-02-02T21:22:28.111Z,94080.52
2018-02-02T21:24:55.634Z,94096.96
2018-02-02T21:27:23.336Z,94096.91
2018-02-02T21:29:50.992Z,94119.11
2018-02-02T21:32:18.535Z,94107.38
2018-02-02T21:34:46.158Z,94097.17
2018-02-02T21:37:13.991Z,94122.55
2018-02-02T21:39:41.601Z,94097.78
2018-02-02T21:42:09.126Z,94131.52
2018-02-02T21:44:36.718Z,94128.60
2018-02-02T21:47:04.356Z,94130.70
2018-02-02T21:49:32.037Z,94119.11
2018-02-02T21:51:59.619Z,94135.09
2018-02-02T21:54:27.267Z,94137.66
2018-02-02T21:56:54.811Z,94108.64
2018-02-02T21:59:22.404Z,94133.63
2018-02-02T22:01:50.187Z,94129.42
2018-02-02T22:04:17.921Z,94106.89
2018-02-02T22:06:45.527Z,94129.34
2018-02-02T22:09:13.175Z,94107.95
2018-02-02T22:11:40.699Z,94143.44
2018-02-02T22:14:08.292Z,94110.30
2018-02-02T22:16:35.875Z,94095.73
2018-02-02T22:19:03.439Z,94110.76
2018-02-02T22:21:30.975Z,94105.30
2018-02-02T22:23:58.571Z,94102.38
2018-02-02T22:26:26.157Z,94107.59
2018-02-02T22:28:53.788Z,94107.51
2018-02-02T22:31:21.399Z,94107.78
2018-02-02T22:33:49.000Z,94085.77
2018-02-02T22:36:16.776Z,94096.16
2018-02-02T22:38:44.307Z,94093.78
2018-02-02T22:41:11.827Z,94093.37
2018-02-02T22:43:39.405Z,94086.47
2018-02-02T22:46:07.013Z,94066.87
2018-02-02T22:48:34.656Z,94077.17
2018-02-02T22:51:02.175Z,94073.98
2018-02-02T22:53:29.765Z,94068.52
2018-02-02T22:55:57.279Z,94071.09
2018-02-02T22:58:24.869Z,94058.46
2018-02-02T23:00:52.387Z,94069.13
2018-02-02T23:03:19.903Z,94050.69
2018-02-02T23:05:47.548Z,94067.34
2018-02-02T23:08:15.067Z,94052.98
2018-02-02T23:10:42.658Z,94043.59
2018-02-02T23:13:10.182Z,94045.42
2018-02-02T23:15:37.817Z,94045.20
2018-02-02T23:18:05.418Z,94045.80
2018-02-02T23:20:33.199Z,94052.34
2018-02-02T23:23:00.715Z,94063.58
2018-02-02T23:25:28.364Z,94047.92
2018-02-02T23:27:55.964Z,94051.55
2018-02-02T23:30:23.496Z,94042.25
2018-02-02T23:32:51.054Z,94035.81
2018-02-02T23:35:18.696Z,94033.70
2018-02-02T23:37:46.280Z,94018.01
2018-02-02T23:40:13.921Z,94021.03
2018-02-02T23:42:41.435Z,94028.58
2018-02-02T23:45:09.037Z,94010.02
2018-02-02T23:47:36.611Z,94007.37
2018-02-02T23:50:04.153Z,93995.56
2018-02-02T23:52:31.839Z,94027.18
2018-02-02T23:54:59.437Z,93992.00
2018-02-02T23:57:27.003Z,93992.81
2018-02-02T23:59:54.640Z,93995.78
